Time;durP1;ratioP1;P1;durP2;ratioP2;P2;SDS_P1;SDS_P2;PMS_P1;PMS_P2;Temp;Humidity;BMP_temperature;BMP_pressure;BME280_temperature;BME280_humidity;BME280_pressure;Samples;Min_cycle;Max_cycle;Signal;HPM_P1;HPM_P2
2021/08/02 00:01:10;;;;;;;3.55;1.35;;;;;;;21.66;57.21;101224.81;5014059;28;20438;-57
2021/08/02 00:03:49;;;;;;;2.53;1.23;;;;;;;21.59;57.28;101215.72;5013617;28;20389;-57
2021/08/02 00:06:22;;;;;;;2.65;1.17;;;;;;;21.65;57.18;101217.81;5012860;28;20113;-58
2021/08/02 00:09:03;;;;;;;4.05;1.25;;;;;;;21.64;57.24;101221.47;5013846;28;20029;-57
2021/08/02 00:11:38;;;;;;;4.22;1.45;;;;;;;21.63;57.15;101223.25;5013270;28;20029;-57
2021/08/02 00:14:06;;;;;;;3.55;1.45;;;;;;;21.60;57.05;101215.59;5013162;28;20038;-57
2021/08/02 00:16:33;;;;;;;3.75;1.40;;;;;;;21.61;57.13;101219.94;5013478;28;20033;-58
2021/08/02 00:18:58;;;;;;;5.80;1.50;;;;;;;21.62;56.90;101226.06;5013770;28;20029;-58
2021/08/02 00:21:24;;;;;;;3.88;1.23;;;;;;;21.61;56.98;101224.41;5012587;28;20026;-57
2021/08/02 00:23:49;;;;;;;3.92;1.42;;;;;;;21.61;56.85;101225.22;5013354;28;20553;-58
2021/08/02 00:26:16;;;;;;;3.10;1.38;;;;;;;21.61;56.96;101229.72;5013286;28;20029;-58
2021/08/02 00:28:44;;;;;;;3.13;1.30;;;;;;;21.60;56.79;101244.75;5012756;28;20045;-58
2021/08/02 00:31:11;;;;;;;3.15;1.33;;;;;;;21.59;56.89;101240.44;5013261;28;20385;-58
2021/08/02 00:33:36;;;;;;;3.17;1.42;;;;;;;21.59;56.73;101239.59;5012675;28;20021;-58
2021/08/02 00:36:11;;;;;;;3.00;1.40;;;;;;;21.59;56.95;101236.94;5011947;28;20092;-57
2021/08/02 00:38:46;;;;;;;3.45;1.40;;;;;;;21.57;56.81;101234.44;5012843;28;20068;-58
2021/08/02 00:41:19;;;;;;;3.28;1.35;;;;;;;21.59;56.86;101234.28;5011775;28;20485;-58
2021/08/02 00:44:09;;;;;;;3.10;1.30;;;;;;;21.57;56.85;101237.09;5013204;28;20038;-57
2021/08/02 00:46:39;;;;;;;2.92;1.10;;;;;;;21.56;56.77;101238.91;5012880;28;20041;-59
2021/08/02 00:49:08;;;;;;;3.03;1.23;;;;;;;21.56;57.00;101240.72;5012145;28;20040;-58
2021/08/02 00:51:37;;;;;;;2.65;1.17;;;;;;;21.55;56.84;101245.19;5012869;28;20026;-57
2021/08/02 00:54:07;;;;;;;2.88;1.10;;;;;;;21.56;56.71;101248.69;5012855;28;20480;-58
2021/08/02 00:56:35;;;;;;;3.10;1.30;;;;;;;21.55;56.80;101236.38;5011983;28;20133;-57
2021/08/02 00:59:05;;;;;;;3.08;1.00;;;;;;;21.55;56.70;101237.25;5012928;28;20058;-58
2021/08/02 01:01:34;;;;;;;3.33;1.15;;;;;;;21.55;56.62;101239.03;5012541;28;20029;-59
2021/08/02 01:04:01;;;;;;;2.55;1.15;;;;;;;21.54;56.62;101237.38;5012320;28;20030;-57
2021/08/02 01:06:29;;;;;;;4.57;1.33;;;;;;;21.54;56.65;101246.16;5012520;28;20064;-58
2021/08/02 01:08:55;;;;;;;2.35;1.20;;;;;;;21.53;56.61;101235.69;5011690;28;20034;-58
2021/08/02 01:11:24;;;;;;;2.72;1.23;;;;;;;21.51;56.42;101225.22;5012588;28;20308;-57
2021/08/02 01:13:49;;;;;;;2.70;1.20;;;;;;;21.52;56.58;101229.56;5012736;28;20026;-58
2021/08/02 01:16:15;;;;;;;3.92;1.20;;;;;;;21.51;56.60;101233.19;5011790;28;20031;-58
2021/08/02 01:18:41;;;;;;;2.60;1.13;;;;;;;21.52;56.63;101236.66;5012963;28;20050;-59
2021/08/02 01:21:08;;;;;;;2.92;1.20;;;;;;;21.51;56.39;101235.00;5012672;28;20022;-58
2021/08/02 01:23:36;;;;;;;2.78;1.33;;;;;;;21.49;56.44;101236.94;5011571;28;20551;-58
2021/08/02 01:26:04;;;;;;;2.33;1.08;;;;;;;21.51;56.34;101235.00;5012762;28;20022;-58
2021/08/02 01:28:29;;;;;;;4.00;1.60;;;;;;;21.51;56.45;101232.34;5012297;28;20022;-58
2021/08/02 01:30:59;;;;;;;2.10;1.03;;;;;;;21.49;56.44;101236.94;5011975;28;20044;-60
2021/08/02 01:33:30;;;;;;;3.17;1.17;;;;;;;21.45;56.43;101228.38;5012568;28;20096;-58
2021/08/02 01:35:57;;;;;;;3.30;1.20;;;;;;;21.50;56.38;101238.63;5012187;28;20038;-58
2021/08/02 01:38:24;;;;;;;2.38;1.17;;;;;;;21.47;56.39;101238.84;5011586;28;20029;-58
2021/08/02 01:40:50;;;;;;;2.67;1.10;;;;;;;21.49;56.27;101235.13;5012621;28;20069;-58
2021/08/02 01:43:15;;;;;;;2.97;1.00;;;;;;;21.48;56.32;101233.44;5012288;28;20065;-57
2021/08/02 01:46:02;;;;;;;3.97;1.17;;;;;;;21.47;56.39;101233.56;5011817;28;20042;-57
2021/08/02 01:48:39;;;;;;;2.63;1.10;;;;;;;21.47;56.27;101236.22;5012170;28;20080;-58
2021/08/02 01:51:15;;;;;;;3.00;1.30;;;;;;;21.46;56.22;101240.69;5011687;28;20030;-59
2021/08/02 01:54:19;;;;;;;4.38;1.30;;;;;;;21.46;56.23;101243.34;5012233;28;20148;-58
2021/08/02 01:56:55;;;;;;;2.90;1.20;;;;;;;21.46;56.49;101238.03;4989335;28;20038;-58
2021/08/02 01:59:25;;;;;;;1.98;1.08;;;;;;;21.46;56.41;101237.16;5011261;28;20447;-57
2021/08/02 02:02:13;;;;;;;3.67;1.15;;;;;;;21.45;56.38;101238.16;5012287;28;20462;-57
2021/08/02 02:04:47;;;;;;;2.20;1.00;;;;;;;21.45;56.22;101246.13;5003788;28;20038;-58
2021/08/02 02:07:12;;;;;;;2.63;1.20;;;;;;;21.45;56.36;101238.16;5011703;28;20129;-58
2021/08/02 02:09:39;;;;;;;2.60;1.20;;;;;;;21.44;56.15;101236.47;5011312;28;20501;-58
2021/08/02 02:12:06;;;;;;;3.33;1.20;;;;;;;21.43;56.19;101230.34;5011150;28;20092;-58
2021/08/02 02:14:35;;;;;;;2.80;1.10;;;;;;;21.42;56.16;101233.13;5011469;28;20474;-57
2021/08/02 02:17:02;;;;;;;3.05;1.20;;;;;;;21.41;56.29;101236.75;5011598;28;20433;-58
2021/08/02 02:19:28;;;;;;;3.05;1.10;;;;;;;21.42;56.25;101236.63;5013458;28;20116;-58
2021/08/02 02:21:55;;;;;;;2.95;1.40;;;;;;;21.42;56.22;101241.91;5015460;28;20026;-58
2021/08/02 02:24:21;;;;;;;3.17;1.20;;;;;;;21.43;56.23;101240.09;5015373;28;20026;-57
2021/08/02 02:26:47;;;;;;;2.58;1.00;;;;;;;21.41;56.24;101234.94;5015045;28;20030;-58
2021/08/02 02:29:15;;;;;;;3.22;1.02;;;;;;;21.41;56.16;101234.94;5015659;28;20469;-57
2021/08/02 02:31:43;;;;;;;3.75;1.00;;;;;;;21.42;56.22;101235.78;5016000;28;20030;-58
2021/08/02 02:34:10;;;;;;;4.40;1.33;;;;;;;21.42;56.17;101235.78;5014846;28;20478;-58
2021/08/02 02:36:38;;;;;;;2.97;1.10;;;;;;;21.41;56.12;101232.28;5015373;28;20469;-58
2021/08/02 02:39:05;;;;;;;3.90;1.38;;;;;;;21.41;56.17;101232.28;5015635;28;20022;-58
2021/08/02 02:41:31;;;;;;;2.15;1.05;;;;;;;21.40;56.03;101229.78;5014748;28;20026;-58
2021/08/02 02:43:58;;;;;;;2.53;1.10;;;;;;;21.40;56.27;101235.09;5015644;28;20030;-58
2021/08/02 02:46:24;;;;;;;2.22;1.13;;;;;;;21.41;56.08;101224.31;5014489;28;20062;-58
2021/08/02 02:48:51;;;;;;;2.75;1.00;;;;;;;21.40;56.18;101232.44;5014804;28;20033;-58
2021/08/02 02:51:17;;;;;;;3.20;1.30;;;;;;;21.37;56.00;101229.06;5015000;28;20030;-57
2021/08/02 02:53:43;;;;;;;3.17;1.25;;;;;;;21.37;56.15;101225.59;5015044;28;20049;-57
2021/08/02 02:56:13;;;;;;;3.40;1.10;;;;;;;21.39;56.02;101231.59;5014767;28;20032;-58
2021/08/02 02:58:40;;;;;;;1.90;1.00;;;;;;;21.38;56.05;101228.09;5014942;28;20127;-58
2021/08/02 03:01:29;;;;;;;1.70;1.00;;;;;;;21.37;56.13;101228.25;5015440;28;20051;-58
2021/08/02 03:04:00;;;;;;;3.40;1.13;;;;;;;21.39;56.07;101234.25;5009586;28;20044;-58
2021/08/02 03:06:28;;;;;;;3.03;1.20;;;;;;;21.38;56.13;101245.84;5014764;28;20381;-58
2021/08/02 03:08:54;;;;;;;2.75;1.20;;;;;;;21.37;56.14;101244.97;5014489;28;20026;-58
2021/08/02 03:11:23;;;;;;;3.33;1.50;;;;;;;21.37;55.98;101247.63;5014735;28;20389;-58
2021/08/02 03:13:50;;;;;;;2.58;1.10;;;;;;;21.36;56.00;101243.31;5014913;28;20018;-58
2021/08/02 03:16:18;;;;;;;2.45;1.10;;;;;;;21.37;56.13;101247.63;5013892;28;20041;-57
2021/08/02 03:18:43;;;;;;;2.55;1.15;;;;;;;21.36;56.16;101242.47;5014786;28;20033;-58
2021/08/02 03:21:08;;;;;;;2.45;1.25;;;;;;;21.36;56.02;101245.13;5014935;28;20026;-57
2021/08/02 03:23:56;;;;;;;4.27;1.20;;;;;;;21.35;56.07;101246.09;5013657;28;20034;-58
2021/08/02 03:26:28;;;;;;;3.65;1.20;;;;;;;21.35;55.97;101257.53;5006226;28;20275;-58
2021/08/02 03:28:58;;;;;;;2.28;1.10;;;;;;;21.33;55.95;101243.59;5014419;28;20442;-58
2021/08/02 03:31:31;;;;;;;4.75;1.23;;;;;;;21.30;55.94;101241.22;5013471;28;20076;-58
2021/08/02 03:33:59;;;;;;;2.73;1.20;;;;;;;21.34;56.10;101257.69;5014808;28;20026;-58
2021/08/02 03:36:29;;;;;;;2.30;1.20;;;;;;;21.32;56.02;101252.50;5014249;28;20334;-58
2021/08/02 03:38:57;;;;;;;4.63;1.25;;;;;;;21.33;56.03;101243.59;5014640;28;20026;-58
2021/08/02 03:41:23;;;;;;;2.55;1.15;;;;;;;21.33;55.98;101240.06;5014118;28;20028;-58
2021/08/02 03:43:49;;;;;;;2.33;1.15;;;;;;;21.32;55.64;101259.63;5013386;28;20475;-58
2021/08/02 03:46:17;;;;;;;3.40;1.30;;;;;;;21.30;56.05;101238.56;5014185;28;20113;-58
2021/08/02 03:48:43;;;;;;;3.30;1.17;;;;;;;21.32;55.84;101256.97;5014190;28;20034;-57
2021/08/02 03:51:11;;;;;;;2.83;1.20;;;;;;;21.32;55.90;101254.34;5013410;28;20017;-58
2021/08/02 03:53:44;;;;;;;2.38;1.00;;;;;;;21.32;56.07;101256.97;5013622;28;20449;-57
2021/08/02 03:56:15;;;;;;;2.97;1.20;;;;;;;21.31;55.96;101256.13;5014041;28;20038;-58
2021/08/02 03:58:40;;;;;;;3.47;1.40;;;;;;;21.29;56.11;101252.78;5013535;28;20052;-57
2021/08/02 04:01:06;;;;;;;4.28;1.33;;;;;;;21.28;55.80;101253.75;5014066;28;20033;-58
2021/08/02 04:03:32;;;;;;;3.45;1.25;;;;;;;21.30;56.06;101262.41;5013557;28;20029;-58
2021/08/02 04:05:59;;;;;;;3.20;1.20;;;;;;;21.29;55.91;101259.91;5013255;28;20129;-57
2021/08/02 04:08:27;;;;;;;2.17;1.10;;;;;;;21.30;55.92;101264.22;5013519;28;20478;-58
2021/08/02 04:10:53;;;;;;;2.85;1.20;;;;;;;21.29;55.91;101266.03;5013764;28;20034;-58
2021/08/02 04:13:19;;;;;;;3.15;1.20;;;;;;;21.29;55.99;101268.69;5012933;28;20037;-58
2021/08/02 04:15:46;;;;;;;3.40;1.35;;;;;;;21.29;55.83;101273.16;5013784;28;20057;-58
2021/08/02 04:18:11;;;;;;;4.22;1.38;;;;;;;21.29;55.84;101278.47;5013690;28;20026;-58
2021/08/02 04:20:36;;;;;;;2.50;1.15;;;;;;;21.29;55.93;101281.09;5012525;28;20025;-58
2021/08/02 04:23:02;;;;;;;2.50;1.10;;;;;;;21.28;55.95;101285.56;5013531;28;20113;-58
2021/08/02 04:25:27;;;;;;;3.25;1.17;;;;;;;21.28;55.91;101282.06;5013078;28;20755;-58
2021/08/02 04:27:54;;;;;;;2.00;1.10;;;;;;;21.26;55.93;101284.84;5012680;28;20022;-58
2021/08/02 04:30:20;;;;;;;2.58;1.27;;;;;;;21.28;55.98;101282.06;5013310;28;20295;-58
2021/08/02 04:32:48;;;;;;;2.85;1.20;;;;;;;21.26;55.97;101284.84;5012957;28;20429;-58
2021/08/02 04:35:14;;;;;;;3.20;1.13;;;;;;;21.23;55.92;101289.59;5013418;28;20022;-58
2021/08/02 04:37:39;;;;;;;3.53;1.10;;;;;;;21.26;55.88;101289.31;5013125;28;20450;-58
2021/08/02 04:40:05;;;;;;;2.13;1.08;;;;;;;21.26;55.79;101284.84;5012446;28;20094;-58
2021/08/02 04:42:38;;;;;;;3.22;1.30;;;;;;;21.26;56.11;101286.69;5012346;28;20125;-58
2021/08/02 04:45:04;;;;;;;2.67;1.10;;;;;;;21.26;55.86;101297.28;5013406;28;20026;-58
2021/08/02 04:47:30;;;;;;;4.45;1.20;;;;;;;21.22;55.91;101290.56;5012198;28;20022;-58
2021/08/02 04:49:55;;;;;;;3.08;1.23;;;;;;;21.23;55.90;101295.72;5013118;28;20462;-58
2021/08/02 04:52:20;;;;;;;3.30;1.40;;;;;;;21.25;56.04;101296.41;5012625;28;20053;-58
2021/08/02 04:54:46;;;;;;;4.63;1.30;;;;;;;21.26;55.86;101299.94;5012478;28;20053;-58
2021/08/02 04:57:14;;;;;;;3.85;1.35;;;;;;;21.24;56.02;101300.06;5013120;28;20022;-58
2021/08/02 04:59:39;;;;;;;3.92;1.27;;;;;;;21.25;55.89;101298.25;5012825;28;20025;-58
2021/08/02 05:02:06;;;;;;;3.47;1.23;;;;;;;21.22;55.98;101304.66;5012216;28;20045;-58
2021/08/02 05:04:34;;;;;;;3.55;1.20;;;;;;;21.23;56.13;101305.50;5012258;28;20489;-58
2021/08/02 05:06:59;;;;;;;2.95;1.38;;;;;;;21.24;55.90;101305.38;5012665;28;20030;-58
2021/08/02 05:09:27;;;;;;;2.77;1.27;;;;;;;21.23;56.03;101302.84;5011703;28;20032;-58
2021/08/02 05:11:54;;;;;;;2.38;1.10;;;;;;;21.23;56.18;101308.97;5012828;28;20446;-58
2021/08/02 05:14:22;;;;;;;3.53;1.05;;;;;;;21.23;55.96;101302.84;5012599;28;20152;-58
2021/08/02 05:16:47;;;;;;;2.63;1.17;;;;;;;21.23;55.99;101303.69;5012024;28;20026;-58
2021/08/02 05:19:13;;;;;;;2.83;1.20;;;;;;;21.23;56.09;101303.69;5012789;28;20076;-58
2021/08/02 05:21:38;;;;;;;3.80;1.20;;;;;;;21.23;56.00;101306.31;5012220;28;20279;-58
2021/08/02 05:24:04;;;;;;;3.95;1.25;;;;;;;21.22;56.00;101298.50;5011861;28;20037;-58
2021/08/02 05:26:29;;;;;;;3.45;1.30;;;;;;;21.23;56.00;101301.03;5012239;28;20026;-58
2021/08/02 05:28:55;;;;;;;5.05;1.30;;;;;;;21.22;56.00;101303.81;5012701;28;20046;-58
2021/08/02 05:31:20;;;;;;;2.22;1.10;;;;;;;21.23;55.95;101311.63;5011615;28;20474;-59
2021/08/02 05:33:45;;;;;;;2.35;1.00;;;;;;;21.23;55.98;101308.16;5012383;28;20026;-57
2021/08/02 05:36:10;;;;;;;3.20;1.20;;;;;;;21.24;56.03;101315.09;5011626;28;20022;-57
2021/08/02 05:38:39;;;;;;;4.40;1.33;;;;;;;21.21;56.07;101308.28;5012323;28;20279;-58
2021/08/02 05:41:05;;;;;;;2.75;1.20;;;;;;;21.20;56.07;101304.81;5012595;28;20473;-58
2021/08/02 05:43:30;;;;;;;2.78;1.30;;;;;;;21.22;56.06;101309.09;5011358;28;20177;-57
2021/08/02 05:45:56;;;;;;;3.72;1.45;;;;;;;21.21;56.12;101310.94;5012379;28;20505;-59
2021/08/02 05:48:22;;;;;;;3.22;1.50;;;;;;;21.23;56.02;101318.75;5012122;28;20026;-58
2021/08/02 05:50:47;;;;;;;2.58;1.17;;;;;;;21.23;56.00;101321.41;5011642;28;20028;-57
2021/08/02 05:53:15;;;;;;;2.90;1.27;;;;;;;21.23;56.04;101321.41;5012864;28;20042;-58
2021/08/02 05:55:40;;;;;;;2.90;1.38;;;;;;;21.23;56.12;101321.41;5016529;28;20319;-59
2021/08/02 05:58:06;;;;;;;3.47;1.30;;;;;;;21.23;56.17;101326.69;5015684;28;20065;-57
2021/08/02 06:00:31;;;;;;;2.60;1.20;;;;;;;21.21;56.10;101321.53;5015992;28;20080;-57
2021/08/02 06:02:56;;;;;;;3.13;1.10;;;;;;;21.21;56.06;101316.22;5016242;28;20390;-58
2021/08/02 06:05:21;;;;;;;2.63;1.10;;;;;;;21.23;56.20;101332.00;5015115;28;20268;-58
2021/08/02 06:07:47;;;;;;;3.00;1.10;;;;;;;21.20;56.18;101325.16;5016116;28;20329;-58
2021/08/02 06:10:12;;;;;;;2.70;1.23;;;;;;;21.21;56.14;101326.84;5016136;28;20286;-58
2021/08/02 06:12:38;;;;;;;4.68;1.48;;;;;;;21.22;56.09;101331.19;5015309;28;20743;-58
2021/08/02 06:15:04;;;;;;;3.63;1.20;;;;;;;21.23;56.26;101342.59;5016137;28;20065;-58
2021/08/02 06:17:30;;;;;;;3.03;1.30;;;;;;;21.22;56.27;101341.78;5015691;28;20113;-59
2021/08/02 06:19:55;;;;;;;2.65;1.13;;;;;;;21.22;56.25;101344.44;5015356;28;20445;-58
2021/08/02 06:22:26;;;;;;;3.25;1.15;;;;;;;21.22;56.29;101328.53;5015810;28;20018;-58
2021/08/02 06:24:52;;;;;;;3.45;1.15;;;;;;;21.23;56.43;101335.47;5016119;28;20026;-59
2021/08/02 06:27:17;;;;;;;3.30;1.30;;;;;;;21.24;56.38;101333.66;5014962;28;20449;-58
2021/08/02 06:29:42;;;;;;;3.03;1.17;;;;;;;21.24;56.67;101331.88;5015958;28;20627;-59
2021/08/02 06:32:07;;;;;;;4.00;1.30;;;;;;;21.26;56.67;101335.22;5015811;28;20298;-60
2021/08/02 06:34:33;;;;;;;3.70;1.35;;;;;;;21.27;56.79;101330.75;5014748;28;20428;-59
2021/08/02 06:36:58;;;;;;;4.07;1.30;;;;;;;21.28;56.69;101337.75;5016076;28;20022;-59
2021/08/02 06:39:24;;;;;;;3.03;1.20;;;;;;;21.29;56.80;101336.78;5015043;28;20026;-60
2021/08/02 06:41:49;;;;;;;3.60;1.35;;;;;;;21.32;56.66;101347.94;5015648;28;20541;-59
2021/08/02 06:44:14;;;;;;;4.18;1.27;;;;;;;21.33;56.63;101348.78;5015132;28;20121;-59
2021/08/02 06:46:40;;;;;;;3.60;1.30;;;;;;;21.31;56.98;101346.25;5014663;28;20033;-57
2021/08/02 06:49:05;;;;;;;3.78;1.30;;;;;;;21.35;56.93;101352.16;5015119;28;20307;-57
2021/08/02 06:51:30;;;;;;;2.60;1.07;;;;;;;21.35;57.06;101360.94;5015202;28;20072;-59
2021/08/02 06:53:56;;;;;;;3.55;1.10;;;;;;;21.36;57.11;101348.50;5013970;28;20651;-58
2021/08/02 06:56:22;;;;;;;2.25;1.10;;;;;;;21.39;57.06;101348.25;5015011;28;20101;-58
2021/08/02 06:58:47;;;;;;;4.72;1.70;;;;;;;21.41;57.14;101354.25;5015120;28;20034;-58
2021/08/02 07:01:12;;;;;;;4.05;1.48;;;;;;;21.42;57.29;101352.44;5014405;28;20466;-57
2021/08/02 07:03:37;;;;;;;2.65;1.20;;;;;;;21.44;57.22;101350.50;5014239;28;20037;-57
2021/08/02 07:06:03;;;;;;;3.78;1.25;;;;;;;21.45;57.30;101350.34;5014896;28;20415;-57
2021/08/02 07:08:28;;;;;;;3.67;1.20;;;;;;;21.49;57.20;101357.13;5014206;28;20030;-58
2021/08/02 07:10:54;;;;;;;5.60;1.42;;;;;;;21.48;57.46;101355.44;5014781;28;20026;-59
2021/08/02 07:13:19;;;;;;;3.17;1.00;;;;;;;21.53;57.56;101349.72;5014573;28;20026;-56
2021/08/02 07:15:47;;;;;;;3.77;1.17;;;;;;;21.54;57.36;101357.53;5014053;28;20282;-57
2021/08/02 07:18:12;;;;;;;2.65;1.00;;;;;;;21.53;57.26;101347.06;5013954;28;20715;-58
2021/08/02 07:20:39;;;;;;;3.97;1.30;;;;;;;21.55;57.48;101355.72;5014352;28;20041;-58
2021/08/02 07:23:04;;;;;;;4.68;1.10;;;;;;;21.59;57.40;101357.13;5011717;28;20038;-58
2021/08/02 07:25:30;;;;;;;3.17;1.13;;;;;;;21.60;57.40;101363.28;5014352;28;20029;-59
2021/08/02 07:27:55;;;;;;;4.13;1.02;;;;;;;21.60;57.35;101363.28;5014637;28;20108;-58
2021/08/02 07:30:20;;;;;;;3.72;1.40;;;;;;;21.59;57.36;101354.50;5013537;28;20022;-59
2021/08/02 07:32:45;;;;;;;4.50;1.23;;;;;;;21.52;56.83;101346.25;5014372;28;20049;-58
2021/08/02 07:35:11;;;;;;;3.83;1.33;;;;;;;21.56;57.15;101355.59;5014269;28;20056;-59
2021/08/02 07:37:42;;;;;;;2.38;1.00;;;;;;;21.58;57.26;101362.59;5013408;28;20026;-59
2021/08/02 07:40:09;;;;;;;3.00;1.10;;;;;;;21.56;57.54;101365.38;5014396;28;20115;-57
2021/08/02 07:42:35;;;;;;;3.20;1.20;;;;;;;21.59;57.35;101366.88;5013827;28;20035;-58
2021/08/02 07:45:03;;;;;;;2.33;1.10;;;;;;;21.59;57.41;101364.25;5013442;28;20105;-58
2021/08/02 07:47:28;;;;;;;2.70;1.00;;;;;;;21.60;57.41;101360.63;5013743;28;20026;-58
2021/08/02 07:49:54;;;;;;;3.15;1.20;;;;;;;21.60;57.19;101357.97;5013927;28;20033;-58
2021/08/02 07:52:19;;;;;;;3.28;1.08;;;;;;;21.59;57.13;101357.13;5013873;28;20042;-58
2021/08/02 07:54:47;;;;;;;4.20;1.20;;;;;;;21.56;57.25;101352.09;5014449;28;20393;-58
2021/08/02 07:57:12;;;;;;;3.30;0.90;;;;;;;21.59;57.15;101370.41;5013344;28;20034;-57
2021/08/02 07:59:37;;;;;;;3.45;1.17;;;;;;;21.58;57.23;101367.88;5013612;28;20084;-58
2021/08/02 08:02:03;;;;;;;4.50;1.10;;;;;;;21.57;57.10;101367.06;5014053;28;20036;-59
2021/08/02 08:04:31;;;;;;;4.20;0.98;;;;;;;21.56;57.15;101363.53;5013020;28;20088;-58
2021/08/02 08:06:56;;;;;;;5.90;1.15;;;;;;;21.55;57.18;101364.53;5014048;28;20389;-59
2021/08/02 08:09:22;;;;;;;4.32;1.20;;;;;;;21.55;57.22;101368.97;5013773;28;20100;-58
2021/08/02 08:11:47;;;;;;;3.63;1.25;;;;;;;21.55;57.36;101368.97;5013305;28;20433;-59
2021/08/02 08:14:13;;;;;;;5.20;1.13;;;;;;;21.57;57.56;101364.41;5013892;28;20022;-58
2021/08/02 08:16:38;;;;;;;3.50;1.10;;;;;;;21.51;57.37;101355.16;5012705;28;20033;-58
2021/08/02 08:19:04;;;;;;;16.67;1.48;;;;;;;21.61;57.55;101372.91;5013159;28;20045;-59
2021/08/02 08:21:29;;;;;;;4.50;1.20;;;;;;;21.62;57.65;101367.47;5013758;28;20466;-59
2021/08/02 08:23:56;;;;;;;5.00;1.40;;;;;;;21.65;57.21;101367.22;5014152;28;20286;-59
2021/08/02 08:26:21;;;;;;;5.07;1.23;;;;;;;21.68;57.50;101361.63;5013147;28;20026;-57
2021/08/02 08:28:47;;;;;;;5.28;1.00;;;;;;;21.70;57.34;101366.81;5013687;28;20048;-59
2021/08/02 08:31:12;;;;;;;3.85;1.00;;;;;;;21.70;57.39;101365.00;5013803;28;20067;-57
2021/08/02 08:33:37;;;;;;;2.85;1.00;;;;;;;21.73;57.08;101366.53;5012475;28;20034;-58
2021/08/02 08:36:03;;;;;;;3.33;0.90;;;;;;;21.70;57.17;101362.34;5013496;28;20022;-58
2021/08/02 08:38:28;;;;;;;3.38;1.25;;;;;;;21.66;57.20;101355.59;5013494;28;20290;-58
2021/08/02 08:40:56;;;;;;;4.28;1.10;;;;;;;21.66;57.26;101363.56;5013008;28;20029;-59
2021/08/02 08:43:22;;;;;;;3.83;0.90;;;;;;;21.67;57.28;101362.59;5013312;28;20029;-59
2021/08/02 08:45:47;;;;;;;3.80;0.90;;;;;;;21.68;57.05;101363.44;5013334;28;20084;-58
2021/08/02 08:48:13;;;;;;;4.13;0.90;;;;;;;21.69;57.05;101362.47;5012718;28;20100;-58
2021/08/02 08:50:46;;;;;;;3.22;1.10;;;;;;;21.67;57.01;101359.94;5013098;28;20109;-59
2021/08/02 08:53:20;;;;;;;2.58;1.08;;;;;;;21.69;56.79;101357.16;5012449;28;20045;-58
2021/08/02 08:55:45;;;;;;;2.97;0.82;;;;;;;21.72;56.70;101363.03;5013652;28;20032;-59
2021/08/02 08:58:11;;;;;;;3.92;1.10;;;;;;;21.72;56.62;101356.91;5013107;28;20042;-59
2021/08/02 09:00:36;;;;;;;3.70;1.02;;;;;;;21.73;56.64;101358.59;5012164;28;20425;-58
2021/08/02 09:03:14;;;;;;;2.95;1.00;;;;;;;21.76;56.52;101362.75;5013007;28;20092;-59
2021/08/02 09:05:40;;;;;;;3.63;1.02;;;;;;;21.75;56.39;101364.59;5012920;28;20473;-58
2021/08/02 09:08:07;;;;;;;2.15;0.80;;;;;;;21.78;56.34;101358.16;5012407;28;20083;-59
2021/08/02 09:10:33;;;;;;;3.25;0.90;;;;;;;21.80;56.23;101369.47;5012706;28;20033;-58
2021/08/02 09:13:05;;;;;;;2.42;0.82;;;;;;;21.80;56.30;101366.81;5012843;28;20466;-58
2021/08/02 09:15:42;;;;;;;3.13;0.90;;;;;;;21.81;56.08;101366.69;5011883;28;20025;-60
2021/08/02 09:18:10;;;;;;;2.15;0.80;;;;;;;21.82;56.29;101362.22;5012979;28;20053;-59
2021/08/02 09:20:38;;;;;;;3.50;0.80;;;;;;;21.83;55.95;101358.59;5012497;28;20033;-59
2021/08/02 09:23:12;;;;;;;2.95;0.80;;;;;;;21.85;56.05;101362.78;5011514;28;20398;-59
2021/08/02 09:25:49;;;;;;;3.45;0.90;;;;;;;21.84;55.75;101362.91;5012355;28;20022;-57
2021/08/02 09:28:17;;;;;;;4.30;0.90;;;;;;;21.83;55.95;101361.25;5011070;28;20057;-59
2021/08/02 09:31:00;;;;;;;3.50;1.02;;;;;;;21.82;55.94;101368.34;5012619;28;20462;-58
2021/08/02 09:33:31;;;;;;;4.95;0.93;;;;;;;21.82;55.98;101367.53;5012330;28;20030;-59
2021/08/02 09:36:02;;;;;;;3.78;1.00;;;;;;;21.81;55.95;101372.00;5011943;28;20127;-60
2021/08/02 09:38:27;;;;;;;3.70;1.00;;;;;;;21.81;56.04;101358.75;5012264;28;20037;-61
2021/08/02 09:40:56;;;;;;;3.85;0.85;;;;;;;21.84;56.08;101371.72;5012681;28;20374;-58
2021/08/02 09:43:23;;;;;;;2.30;0.90;;;;;;;21.84;56.06;101366.44;5011513;28;20030;-59
2021/08/02 09:45:52;;;;;;;1.75;0.65;;;;;;;21.86;56.10;101367.13;5012494;28;20505;-59
2021/08/02 09:48:19;;;;;;;1.98;0.80;;;;;;;21.86;56.27;101367.13;5011934;28;20038;-60
2021/08/02 09:50:47;;;;;;;4.43;0.95;;;;;;;21.86;56.21;101367.13;5011571;28;20505;-61
2021/08/02 09:53:17;;;;;;;4.28;0.85;;;;;;;21.86;56.20;101368.94;5012130;28;20401;-60
2021/08/02 09:55:43;;;;;;;2.08;0.70;;;;;;;21.88;56.26;101364.34;5012461;28;20058;-58
2021/08/02 09:58:18;;;;;;;2.70;0.93;;;;;;;21.86;56.16;101364.47;5011647;28;20029;-58
2021/08/02 10:00:43;;;;;;;3.00;1.10;;;;;;;21.83;56.26;101354.13;5012134;28;20029;-58
2021/08/02 10:03:09;;;;;;;2.15;0.70;;;;;;;21.86;56.07;101363.63;5011987;28;20464;-59
2021/08/02 10:05:38;;;;;;;3.85;0.82;;;;;;;21.87;56.13;101366.16;5011368;28;20040;-60
2021/08/02 10:08:09;;;;;;;3.80;0.90;;;;;;;21.87;56.12;101365.28;5012207;28;20030;-58
2021/08/02 10:10:38;;;;;;;2.40;0.82;;;;;;;21.89;56.14;101361.53;5011066;28;20053;-57
2021/08/02 10:13:04;;;;;;;5.85;1.20;;;;;;;21.92;55.69;101363.06;5012042;28;20108;-57
2021/08/02 10:15:36;;;;;;;3.15;1.08;;;;;;;21.98;55.57;101353.72;5011693;28;20037;-59
2021/08/02 10:18:05;;;;;;;3.72;1.23;;;;;;;21.98;55.66;101361.69;5011264;28;20481;-59
2021/08/02 10:20:35;;;;;;;3.17;1.02;;;;;;;21.95;55.71;101360.13;5011878;28;20041;-59
2021/08/02 10:23:04;;;;;;;2.92;1.00;;;;;;;21.93;55.52;101359.44;5012105;28;20034;-60
2021/08/02 10:25:37;;;;;;;3.38;0.80;;;;;;;21.93;55.73;101356.78;5010871;28;20121;-60
2021/08/02 10:28:14;;;;;;;3.65;0.95;;;;;;;21.92;55.60;101358.63;5012000;28;20033;-59
2021/08/02 10:30:45;;;;;;;2.42;0.90;;;;;;;21.92;55.82;101361.25;5011806;28;20478;-60
2021/08/02 10:33:11;;;;;;;4.85;1.33;;;;;;;21.91;55.73;101358.75;5011356;28;20156;-60
2021/08/02 10:35:40;;;;;;;2.28;0.80;;;;;;;21.92;55.73;101363.91;5011618;28;20022;-58
2021/08/02 10:38:12;;;;;;;3.90;1.05;;;;;;;21.92;55.82;101361.25;5011674;28;20117;-59
2021/08/02 10:40:44;;;;;;;2.05;0.80;;;;;;;21.92;55.90;101353.31;5013593;28;20045;-60
2021/08/02 10:43:10;;;;;;;3.67;1.10;;;;;;;21.92;55.73;101358.63;5015041;28;20037;-60
2021/08/02 10:45:35;;;;;;;5.20;1.10;;;;;;;21.91;55.79;101356.09;5013945;28;20038;-60
2021/08/02 10:48:04;;;;;;;4.32;1.15;;;;;;;21.92;55.86;101360.41;5015288;28;20502;-62
2021/08/02 10:50:33;;;;;;;4.70;1.48;;;;;;;21.93;55.87;101362.09;5015084;28;20470;-60
2021/08/02 10:53:10;;;;;;;5.00;1.30;;;;;;;21.94;55.81;101358.47;5015971;28;20046;-61
2021/08/02 10:55:42;;;;;;;4.18;1.90;;;;;;;21.95;55.75;101365.44;5015148;28;20407;-59
2021/08/02 10:58:08;;;;;;;6.00;2.00;;;;;;;21.93;55.66;101362.91;5015555;28;20398;-60
2021/08/02 11:00:33;;;;;;;5.03;1.73;;;;;;;21.94;55.88;101358.47;5014629;28;20470;-59
2021/08/02 11:02:59;;;;;;;5.55;2.20;;;;;;;21.93;55.88;101362.91;5015893;28;20279;-58
2021/08/02 11:05:31;;;;;;;7.28;1.95;;;;;;;21.92;55.74;101355.97;5015514;28;20470;-58
2021/08/02 11:08:06;;;;;;;6.15;2.03;;;;;;;21.91;54.88;101358.75;5014698;28;20018;-61
2021/08/02 11:10:33;;;;;;;5.10;2.00;;;;;;;21.93;55.31;101359.44;5015356;28;20053;-59
2021/08/02 11:12:59;;;;;;;5.55;1.75;;;;;;;21.91;55.35;101361.41;5014948;28;20064;-61
2021/08/02 11:15:24;;;;;;;4.88;2.00;;;;;;;21.92;55.05;101358.63;5013687;28;20061;-61
2021/08/02 11:17:51;;;;;;;3.67;1.67;;;;;;;21.93;55.60;101359.44;5015016;28;20030;-60
2021/08/02 11:20:17;;;;;;;3.88;1.45;;;;;;;21.93;55.48;101357.63;5014856;28;20072;-60
2021/08/02 11:22:56;;;;;;;3.83;1.50;;;;;;;21.93;55.27;101368.22;5014098;28;20323;-59
2021/08/02 11:25:25;;;;;;;5.10;1.58;;;;;;;21.93;55.42;101359.44;5014536;28;20041;-60
2021/08/02 11:27:53;;;;;;;4.68;1.60;;;;;;;21.92;55.33;101363.91;5013850;28;20029;-59